sensor_id;sensor_type;location;lat;lon;timestamp;temperature;humidity
12632;DHT22;6381;45.748;12.106;2023-05-07T00:00:23;18.50;98.00
12632;DHT22;6381;45.748;12.106;2023-05-07T00:02:52;18.40;98.00
12632;DHT22;6381;45.748;12.106;2023-05-07T00:05:22;18.60;98.00
12632;DHT22;6381;45.748;12.106;2023-05-07T00:07:52;18.80;97.90
12632;DHT22;6381;45.748;12.106;2023-05-07T00:10:26;18.70;97.90
12632;DHT22;6381;45.748;12.106;2023-05-07T00:12:56;18.70;98.20
12632;DHT22;6381;45.748;12.106;2023-05-07T00:15:26;18.70;98.20
12632;DHT22;6381;45.748;12.106;2023-05-07T00:17:56;18.80;98.10
12632;DHT22;6381;45.748;12.106;2023-05-07T00:20:27;18.80;97.90
12632;DHT22;6381;45.748;12.106;2023-05-07T00:22:57;18.70;98.00
12632;DHT22;6381;45.748;12.106;2023-05-07T00:25:28;18.50;98.10
12632;DHT22;6381;45.748;12.106;2023-05-07T00:27:58;18.40;98.50
12632;DHT22;6381;45.748;12.106;2023-05-07T00:30:32;18.60;98.30
12632;DHT22;6381;45.748;12.106;2023-05-07T00:33:01;18.60;98.30
12632;DHT22;6381;45.748;12.106;2023-05-07T00:35:31;18.40;98.60
12632;DHT22;6381;45.748;12.106;2023-05-07T00:38:01;18.20;99.40
12632;DHT22;6381;45.748;12.106;2023-05-07T00:40:32;18.20;99.50
12632;DHT22;6381;45.748;12.106;2023-05-07T00:43:03;18.40;99.20
12632;DHT22;6381;45.748;12.106;2023-05-07T00:45:33;18.50;99.30
12632;DHT22;6381;45.748;12.106;2023-05-07T00:48:03;18.70;98.90
12632;DHT22;6381;45.748;12.106;2023-05-07T00:50:33;18.60;98.80
12632;DHT22;6381;45.748;12.106;2023-05-07T00:53:03;18.60;98.60
12632;DHT22;6381;45.748;12.106;2023-05-07T00:55:35;18.30;99.00
12632;DHT22;6381;45.748;12.106;2023-05-07T00:58:06;18.30;99.30
12632;DHT22;6381;45.748;12.106;2023-05-07T01:00:36;18.30;99.70
12632;DHT22;6381;45.748;12.106;2023-05-07T01:03:06;18.20;99.50
12632;DHT22;6381;45.748;12.106;2023-05-07T01:05:36;18.30;99.40
12632;DHT22;6381;45.748;12.106;2023-05-07T01:08:07;18.20;99.70
12632;DHT22;6381;45.748;12.106;2023-05-07T01:10:39;18.20;99.80
12632;DHT22;6381;45.748;12.106;2023-05-07T01:13:11;18.20;99.90
12632;DHT22;6381;45.748;12.106;2023-05-07T01:15:43;18.30;99.80
12632;DHT22;6381;45.748;12.106;2023-05-07T01:18:13;18.50;99.30
12632;DHT22;6381;45.748;12.106;2023-05-07T01:20:44;18.50;99.50
12632;DHT22;6381;45.748;12.106;2023-05-07T01:23:16;18.60;99.40
12632;DHT22;6381;45.748;12.106;2023-05-07T01:25:51;18.40;99.30
12632;DHT22;6381;45.748;12.106;2023-05-07T01:28:24;18.10;99.90
12632;DHT22;6381;45.748;12.106;2023-05-07T01:31:01;18.20;99.90
12632;DHT22;6381;45.748;12.106;2023-05-07T01:33:35;18.00;99.90
12632;DHT22;6381;45.748;12.106;2023-05-07T01:36:06;17.90;99.90
12632;DHT22;6381;45.748;12.106;2023-05-07T01:38:40;18.00;99.90
12632;DHT22;6381;45.748;12.106;2023-05-07T01:41:12;18.00;99.90
12632;DHT22;6381;45.748;12.106;2023-05-07T01:43:43;18.10;99.90
12632;DHT22;6381;45.748;12.106;2023-05-07T01:46:13;18.30;99.90
12632;DHT22;6381;45.748;12.106;2023-05-07T01:48:45;18.20;99.90
12632;DHT22;6381;45.748;12.106;2023-05-07T01:51:15;18.20;99.90
12632;DHT22;6381;45.748;12.106;2023-05-07T01:53:47;18.20;99.80
12632;DHT22;6381;45.748;12.106;2023-05-07T01:56:19;18.20;99.90
12632;DHT22;6381;45.748;12.106;2023-05-07T01:58:50;18.00;99.90
12632;DHT22;6381;45.748;12.106;2023-05-07T02:01:21;17.90;99.90
12632;DHT22;6381;45.748;12.106;2023-05-07T02:03:51;19.00;99.90
12632;DHT22;6381;45.748;12.106;2023-05-07T02:06:25;18.20;99.90
12632;DHT22;6381;45.748;12.106;2023-05-07T02:09:03;18.20;99.90
12632;DHT22;6381;45.748;12.106;2023-05-07T02:11:33;18.10;99.90
12632;DHT22;6381;45.748;12.106;2023-05-07T02:14:03;18.30;99.90
12632;DHT22;6381;45.748;12.106;2023-05-07T02:16:32;18.20;99.90
12632;DHT22;6381;45.748;12.106;2023-05-07T02:19:02;18.20;99.90
12632;DHT22;6381;45.748;12.106;2023-05-07T02:21:33;18.30;99.90
12632;DHT22;6381;45.748;12.106;2023-05-07T02:24:05;18.10;99.90
12632;DHT22;6381;45.748;12.106;2023-05-07T02:26:35;18.20;99.90
12632;DHT22;6381;45.748;12.106;2023-05-07T02:29:04;18.20;99.90
12632;DHT22;6381;45.748;12.106;2023-05-07T02:31:35;18.20;99.90
12632;DHT22;6381;45.748;12.106;2023-05-07T02:34:05;18.10;99.90
12632;DHT22;6381;45.748;12.106;2023-05-07T02:36:35;18.00;99.90
12632;DHT22;6381;45.748;12.106;2023-05-07T02:39:11;17.90;99.90
12632;DHT22;6381;45.748;12.106;2023-05-07T02:41:41;18.00;99.90
12632;DHT22;6381;45.748;12.106;2023-05-07T02:44:11;18.10;99.90
12632;DHT22;6381;45.748;12.106;2023-05-07T02:46:41;18.00;99.90
12632;DHT22;6381;45.748;12.106;2023-05-07T02:49:12;17.80;99.90
12632;DHT22;6381;45.748;12.106;2023-05-07T02:51:42;18.00;99.90
12632;DHT22;6381;45.748;12.106;2023-05-07T02:54:21;18.00;99.90
12632;DHT22;6381;45.748;12.106;2023-05-07T02:56:51;18.10;99.90
12632;DHT22;6381;45.748;12.106;2023-05-07T02:59:21;18.00;99.90
12632;DHT22;6381;45.748;12.106;2023-05-07T03:01:51;18.20;99.80
12632;DHT22;6381;45.748;12.106;2023-05-07T03:04:21;18.10;99.70
12632;DHT22;6381;45.748;12.106;2023-05-07T03:06:52;18.00;99.80
12632;DHT22;6381;45.748;12.106;2023-05-07T03:09:24;18.00;99.90
12632;DHT22;6381;45.748;12.106;2023-05-07T03:11:53;17.90;99.90
12632;DHT22;6381;45.748;12.106;2023-05-07T03:14:23;17.90;99.90
12632;DHT22;6381;45.748;12.106;2023-05-07T03:16:55;17.90;99.90
12632;DHT22;6381;45.748;12.106;2023-05-07T03:19:25;17.90;99.90
12632;DHT22;6381;45.748;12.106;2023-05-07T03:21:55;18.00;99.80
12632;DHT22;6381;45.748;12.106;2023-05-07T03:24:27;17.80;99.90
12632;DHT22;6381;45.748;12.106;2023-05-07T03:26:59;17.80;99.90
12632;DHT22;6381;45.748;12.106;2023-05-07T03:29:29;17.90;99.90
12632;DHT22;6381;45.748;12.106;2023-05-07T03:31:59;17.80;99.90
12632;DHT22;6381;45.748;12.106;2023-05-07T03:34:29;17.40;99.90
12632;DHT22;6381;45.748;12.106;2023-05-07T03:36:59;17.50;99.90
12632;DHT22;6381;45.748;12.106;2023-05-07T03:39:31;17.60;99.90
12632;DHT22;6381;45.748;12.106;2023-05-07T03:42:01;17.70;99.90
12632;DHT22;6381;45.748;12.106;2023-05-07T03:44:32;17.70;99.90
12632;DHT22;6381;45.748;12.106;2023-05-07T03:47:04;17.70;99.90
12632;DHT22;6381;45.748;12.106;2023-05-07T03:49:35;17.50;99.90
12632;DHT22;6381;45.748;12.106;2023-05-07T03:52:05;17.80;99.90
12632;DHT22;6381;45.748;12.106;2023-05-07T03:54:38;17.50;99.90
12632;DHT22;6381;45.748;12.106;2023-05-07T03:57:12;17.50;99.90
12632;DHT22;6381;45.748;12.106;2023-05-07T03:59:42;17.60;99.90
12632;DHT22;6381;45.748;12.106;2023-05-07T04:02:14;17.30;99.90
12632;DHT22;6381;45.748;12.106;2023-05-07T04:04:44;17.40;99.90
12632;DHT22;6381;45.748;12.106;2023-05-07T04:07:15;17.50;99.90
12632;DHT22;6381;45.748;12.106;2023-05-07T04:09:50;17.40;99.90
12632;DHT22;6381;45.748;12.106;2023-05-07T04:12:21;17.50;99.90
12632;DHT22;6381;45.748;12.106;2023-05-07T04:14:51;17.70;99.90
12632;DHT22;6381;45.748;12.106;2023-05-07T04:17:22;17.80;99.90
12632;DHT22;6381;45.748;12.106;2023-05-07T04:19:52;17.90;99.90
12632;DHT22;6381;45.748;12.106;2023-05-07T04:22:22;17.70;99.90
12632;DHT22;6381;45.748;12.106;2023-05-07T04:24:54;17.80;99.90
12632;DHT22;6381;45.748;12.106;2023-05-07T04:27:25;17.60;99.90
12632;DHT22;6381;45.748;12.106;2023-05-07T04:29:56;17.70;99.90
12632;DHT22;6381;45.748;12.106;2023-05-07T04:32:27;17.90;99.90
12632;DHT22;6381;45.748;12.106;2023-05-07T04:34:57;17.80;99.90
12632;DHT22;6381;45.748;12.106;2023-05-07T04:37:27;17.70;99.90
12632;DHT22;6381;45.748;12.106;2023-05-07T04:40:02;17.70;99.90
12632;DHT22;6381;45.748;12.106;2023-05-07T04:42:33;17.80;99.90
12632;DHT22;6381;45.748;12.106;2023-05-07T04:45:04;18.00;99.90
12632;DHT22;6381;45.748;12.106;2023-05-07T04:47:35;18.10;99.90
12632;DHT22;6381;45.748;12.106;2023-05-07T04:50:06;18.10;99.90
12632;DHT22;6381;45.748;12.106;2023-05-07T04:52:38;18.20;99.90
12632;DHT22;6381;45.748;12.106;2023-05-07T04:55:10;18.30;99.90
12632;DHT22;6381;45.748;12.106;2023-05-07T04:57:41;18.30;99.90
12632;DHT22;6381;45.748;12.106;2023-05-07T05:00:14;18.30;99.90
12632;DHT22;6381;45.748;12.106;2023-05-07T05:02:45;18.40;99.90
12632;DHT22;6381;45.748;12.106;2023-05-07T05:05:19;18.50;99.90
12632;DHT22;6381;45.748;12.106;2023-05-07T05:07:52;18.40;99.90
12632;DHT22;6381;45.748;12.106;2023-05-07T05:10:23;18.60;99.70
12632;DHT22;6381;45.748;12.106;2023-05-07T05:12:55;18.60;99.70
12632;DHT22;6381;45.748;12.106;2023-05-07T05:15:26;18.60;99.60
12632;DHT22;6381;45.748;12.106;2023-05-07T05:17:58;18.60;99.70
12632;DHT22;6381;45.748;12.106;2023-05-07T05:20:28;18.70;99.60
12632;DHT22;6381;45.748;12.106;2023-05-07T05:22:58;18.50;99.90
12632;DHT22;6381;45.748;12.106;2023-05-07T05:25:31;18.70;99.90
12632;DHT22;6381;45.748;12.106;2023-05-07T05:28:01;18.70;99.70
12632;DHT22;6381;45.748;12.106;2023-05-07T05:30:34;18.80;99.10
12632;DHT22;6381;45.748;12.106;2023-05-07T05:33:04;18.80;99.00
12632;DHT22;6381;45.748;12.106;2023-05-07T05:35:34;18.80;98.90
12632;DHT22;6381;45.748;12.106;2023-05-07T05:38:07;18.80;99.00
12632;DHT22;6381;45.748;12.106;2023-05-07T05:40:39;18.60;98.70
12632;DHT22;6381;45.748;12.106;2023-05-07T05:43:10;18.70;98.50
12632;DHT22;6381;45.748;12.106;2023-05-07T05:45:40;18.70;98.40
12632;DHT22;6381;45.748;12.106;2023-05-07T05:48:10;18.70;98.80
12632;DHT22;6381;45.748;12.106;2023-05-07T05:50:41;18.60;98.70
12632;DHT22;6381;45.748;12.106;2023-05-07T05:53:12;18.70;98.60
12632;DHT22;6381;45.748;12.106;2023-05-07T05:55:43;18.70;98.50
12632;DHT22;6381;45.748;12.106;2023-05-07T05:58:13;18.70;98.90
12632;DHT22;6381;45.748;12.106;2023-05-07T06:00:51;18.80;98.60
12632;DHT22;6381;45.748;12.106;2023-05-07T06:03:24;19.00;98.40
12632;DHT22;6381;45.748;12.106;2023-05-07T06:05:55;19.00;98.40
12632;DHT22;6381;45.748;12.106;2023-05-07T06:08:29;19.10;98.20
12632;DHT22;6381;45.748;12.106;2023-05-07T06:11:02;19.10;98.20
12632;DHT22;6381;45.748;12.106;2023-05-07T06:13:35;19.10;98.10
12632;DHT22;6381;45.748;12.106;2023-05-07T06:16:07;19.20;97.70
12632;DHT22;6381;45.748;12.106;2023-05-07T06:18:37;19.30;97.10
12632;DHT22;6381;45.748;12.106;2023-05-07T06:21:07;19.30;96.30
12632;DHT22;6381;45.748;12.106;2023-05-07T06:23:38;19.40;96.10
12632;DHT22;6381;45.748;12.106;2023-05-07T06:26:10;19.50;95.70
12632;DHT22;6381;45.748;12.106;2023-05-07T06:28:43;19.50;94.90
12632;DHT22;6381;45.748;12.106;2023-05-07T06:31:15;19.60;94.10
12632;DHT22;6381;45.748;12.106;2023-05-07T06:33:51;19.70;93.70
12632;DHT22;6381;45.748;12.106;2023-05-07T06:36:24;19.80;94.30
12632;DHT22;6381;45.748;12.106;2023-05-07T06:38:57;19.90;94.60
12632;DHT22;6381;45.748;12.106;2023-05-07T06:41:28;20.10;94.80
12632;DHT22;6381;45.748;12.106;2023-05-07T06:44:06;20.20;94.00
12632;DHT22;6381;45.748;12.106;2023-05-07T06:46:47;20.00;94.40
12632;DHT22;6381;45.748;12.106;2023-05-07T06:49:17;20.30;95.50
12632;DHT22;6381;45.748;12.106;2023-05-07T06:51:49;20.20;94.10
12632;DHT22;6381;45.748;12.106;2023-05-07T06:54:19;20.00;94.30
12632;DHT22;6381;45.748;12.106;2023-05-07T06:56:53;20.00;94.30
12632;DHT22;6381;45.748;12.106;2023-05-07T06:59:25;20.20;93.60
12632;DHT22;6381;45.748;12.106;2023-05-07T07:01:55;20.30;93.10
12632;DHT22;6381;45.748;12.106;2023-05-07T07:04:26;20.20;92.60
12632;DHT22;6381;45.748;12.106;2023-05-07T07:07:04;20.30;92.40
12632;DHT22;6381;45.748;12.106;2023-05-07T07:09:35;20.30;92.20
12632;DHT22;6381;45.748;12.106;2023-05-07T07:12:08;20.60;92.30
12632;DHT22;6381;45.748;12.106;2023-05-07T07:14:40;20.60;91.90
12632;DHT22;6381;45.748;12.106;2023-05-07T07:17:10;20.70;91.30
12632;DHT22;6381;45.748;12.106;2023-05-07T07:19:40;20.70;92.80
12632;DHT22;6381;45.748;12.106;2023-05-07T07:22:10;21.10;93.20
12632;DHT22;6381;45.748;12.106;2023-05-07T07:24:40;21.20;91.70
12632;DHT22;6381;45.748;12.106;2023-05-07T07:27:14;21.00;90.00
12632;DHT22;6381;45.748;12.106;2023-05-07T07:29:44;21.30;92.00
12632;DHT22;6381;45.748;12.106;2023-05-07T07:32:14;21.20;90.20
12632;DHT22;6381;45.748;12.106;2023-05-07T07:34:44;21.40;89.70
12632;DHT22;6381;45.748;12.106;2023-05-07T07:37:15;21.60;89.70
12632;DHT22;6381;45.748;12.106;2023-05-07T07:39:45;21.80;90.00
12632;DHT22;6381;45.748;12.106;2023-05-07T07:42:16;22.10;91.20
12632;DHT22;6381;45.748;12.106;2023-05-07T07:44:46;22.10;86.90
12632;DHT22;6381;45.748;12.106;2023-05-07T07:47:19;22.20;87.60
12632;DHT22;6381;45.748;12.106;2023-05-07T07:49:51;22.40;90.30
12632;DHT22;6381;45.748;12.106;2023-05-07T07:52:23;22.60;89.50
12632;DHT22;6381;45.748;12.106;2023-05-07T07:54:53;22.60;86.80
12632;DHT22;6381;45.748;12.106;2023-05-07T07:57:25;22.40;86.50
12632;DHT22;6381;45.748;12.106;2023-05-07T07:59:55;22.70;84.20
12632;DHT22;6381;45.748;12.106;2023-05-07T08:02:25;22.90;79.50
12632;DHT22;6381;45.748;12.106;2023-05-07T08:04:59;23.10;78.00
12632;DHT22;6381;45.748;12.106;2023-05-07T08:07:29;23.30;75.80
12632;DHT22;6381;45.748;12.106;2023-05-07T08:09:59;23.20;78.80
12632;DHT22;6381;45.748;12.106;2023-05-07T08:12:32;23.10;77.50
12632;DHT22;6381;45.748;12.106;2023-05-07T08:15:04;23.10;78.80
12632;DHT22;6381;45.748;12.106;2023-05-07T08:17:34;23.00;81.10
12632;DHT22;6381;45.748;12.106;2023-05-07T08:20:05;22.70;77.10
12632;DHT22;6381;45.748;12.106;2023-05-07T08:22:37;22.60;78.80
12632;DHT22;6381;45.748;12.106;2023-05-07T08:25:09;22.90;82.10
12632;DHT22;6381;45.748;12.106;2023-05-07T08:27:41;22.70;79.90
12632;DHT22;6381;45.748;12.106;2023-05-07T08:30:12;22.80;78.10
12632;DHT22;6381;45.748;12.106;2023-05-07T08:32:43;22.80;78.00
12632;DHT22;6381;45.748;12.106;2023-05-07T08:35:12;22.70;73.70
12632;DHT22;6381;45.748;12.106;2023-05-07T08:37:43;22.80;74.10
12632;DHT22;6381;45.748;12.106;2023-05-07T08:40:13;22.80;71.00
12632;DHT22;6381;45.748;12.106;2023-05-07T08:42:48;22.90;71.50
12632;DHT22;6381;45.748;12.106;2023-05-07T08:45:19;23.00;71.50
12632;DHT22;6381;45.748;12.106;2023-05-07T08:47:59;23.10;72.00
12632;DHT22;6381;45.748;12.106;2023-05-07T08:50:35;23.10;72.50
12632;DHT22;6381;45.748;12.106;2023-05-07T08:53:07;23.00;71.90
12632;DHT22;6381;45.748;12.106;2023-05-07T08:55:38;22.80;71.10
12632;DHT22;6381;45.748;12.106;2023-05-07T08:58:11;22.90;69.00
12632;DHT22;6381;45.748;12.106;2023-05-07T09:00:42;22.80;71.30
12632;DHT22;6381;45.748;12.106;2023-05-07T09:03:13;22.70;73.20
12632;DHT22;6381;45.748;12.106;2023-05-07T09:05:47;22.70;74.10
12632;DHT22;6381;45.748;12.106;2023-05-07T09:08:19;22.70;72.30
12632;DHT22;6381;45.748;12.106;2023-05-07T09:10:58;22.80;71.40
12632;DHT22;6381;45.748;12.106;2023-05-07T09:13:31;22.50;67.90
12632;DHT22;6381;45.748;12.106;2023-05-07T09:16:14;22.70;69.00
12632;DHT22;6381;45.748;12.106;2023-05-07T09:18:46;23.00;71.60
12632;DHT22;6381;45.748;12.106;2023-05-07T09:21:17;23.00;71.40
12632;DHT22;6381;45.748;12.106;2023-05-07T09:23:51;22.90;68.30
12632;DHT22;6381;45.748;12.106;2023-05-07T09:26:25;23.00;73.00
12632;DHT22;6381;45.748;12.106;2023-05-07T09:28:58;23.30;72.50
12632;DHT22;6381;45.748;12.106;2023-05-07T09:31:28;23.40;71.60
12632;DHT22;6381;45.748;12.106;2023-05-07T09:33:58;23.40;68.70
12632;DHT22;6381;45.748;12.106;2023-05-07T09:36:32;23.20;62.80
12632;DHT22;6381;45.748;12.106;2023-05-07T09:39:03;23.00;62.40
12632;DHT22;6381;45.748;12.106;2023-05-07T09:41:33;23.00;61.00
12632;DHT22;6381;45.748;12.106;2023-05-07T09:44:34;23.20;61.60
12632;DHT22;6381;45.748;12.106;2023-05-07T09:47:07;23.30;61.10
12632;DHT22;6381;45.748;12.106;2023-05-07T09:49:46;23.20;61.40
12632;DHT22;6381;45.748;12.106;2023-05-07T09:52:21;23.00;60.30
12632;DHT22;6381;45.748;12.106;2023-05-07T09:54:56;23.10;61.60
12632;DHT22;6381;45.748;12.106;2023-05-07T09:57:29;23.30;61.80
12632;DHT22;6381;45.748;12.106;2023-05-07T10:00:07;23.50;61.30
12632;DHT22;6381;45.748;12.106;2023-05-07T10:02:58;23.80;62.50
12632;DHT22;6381;45.748;12.106;2023-05-07T10:05:39;23.80;62.80
12632;DHT22;6381;45.748;12.106;2023-05-07T10:08:10;23.80;62.20
12632;DHT22;6381;45.748;12.106;2023-05-07T10:10:41;24.00;63.00
12632;DHT22;6381;45.748;12.106;2023-05-07T10:13:17;23.70;62.00
12632;DHT22;6381;45.748;12.106;2023-05-07T10:15:53;23.60;62.00
12632;DHT22;6381;45.748;12.106;2023-05-07T10:18:27;23.80;62.30
12632;DHT22;6381;45.748;12.106;2023-05-07T10:21:08;24.00;63.80
12632;DHT22;6381;45.748;12.106;2023-05-07T10:23:41;23.80;60.50
12632;DHT22;6381;45.748;12.106;2023-05-07T10:26:15;23.80;61.70
12632;DHT22;6381;45.748;12.106;2023-05-07T10:28:53;23.90;60.90
12632;DHT22;6381;45.748;12.106;2023-05-07T10:31:52;23.80;59.00
12632;DHT22;6381;45.748;12.106;2023-05-07T10:34:27;23.60;57.40
12632;DHT22;6381;45.748;12.106;2023-05-07T10:36:59;23.60;57.80
12632;DHT22;6381;45.748;12.106;2023-05-07T10:39:30;24.20;58.20
12632;DHT22;6381;45.748;12.106;2023-05-07T10:42:08;24.40;54.30
12632;DHT22;6381;45.748;12.106;2023-05-07T10:44:42;24.90;53.50
12632;DHT22;6381;45.748;12.106;2023-05-07T10:47:21;25.30;53.60
12632;DHT22;6381;45.748;12.106;2023-05-07T10:50:20;25.30;55.20
12632;DHT22;6381;45.748;12.106;2023-05-07T10:53:21;25.40;51.80
12632;DHT22;6381;45.748;12.106;2023-05-07T10:56:24;25.60;52.60
12632;DHT22;6381;45.748;12.106;2023-05-07T10:59:32;25.80;50.60
12632;DHT22;6381;45.748;12.106;2023-05-07T11:02:23;26.10;49.40
12632;DHT22;6381;45.748;12.106;2023-05-07T11:05:19;25.50;50.10
12632;DHT22;6381;45.748;12.106;2023-05-07T11:08:09;25.10;49.60
12632;DHT22;6381;45.748;12.106;2023-05-07T11:10:53;25.50;52.80
12632;DHT22;6381;45.748;12.106;2023-05-07T11:13:43;25.90;49.40
12632;DHT22;6381;45.748;12.106;2023-05-07T11:16:24;26.00;49.20
12632;DHT22;6381;45.748;12.106;2023-05-07T11:19:51;25.80;49.30
12632;DHT22;6381;45.748;12.106;2023-05-07T11:22:59;25.80;50.40
12632;DHT22;6381;45.748;12.106;2023-05-07T11:25:37;26.40;50.10
12632;DHT22;6381;45.748;12.106;2023-05-07T11:28:15;26.30;48.50
12632;DHT22;6381;45.748;12.106;2023-05-07T11:30:54;26.00;48.30
12632;DHT22;6381;45.748;12.106;2023-05-07T11:33:24;25.70;47.90
12632;DHT22;6381;45.748;12.106;2023-05-07T11:36:02;25.90;48.40
12632;DHT22;6381;45.748;12.106;2023-05-07T11:38:37;25.80;47.50
12632;DHT22;6381;45.748;12.106;2023-05-07T11:41:08;25.90;48.80
12632;DHT22;6381;45.748;12.106;2023-05-07T11:43:38;26.10;48.50
12632;DHT22;6381;45.748;12.106;2023-05-07T11:46:09;26.30;47.20
12632;DHT22;6381;45.748;12.106;2023-05-07T11:48:39;26.60;47.60
12632;DHT22;6381;45.748;12.106;2023-05-07T11:51:11;26.60;46.50
12632;DHT22;6381;45.748;12.106;2023-05-07T11:53:42;26.60;45.80
12632;DHT22;6381;45.748;12.106;2023-05-07T11:56:13;26.80;47.50
12632;DHT22;6381;45.748;12.106;2023-05-07T11:58:44;26.10;46.70
12632;DHT22;6381;45.748;12.106;2023-05-07T12:01:15;26.40;48.50
12632;DHT22;6381;45.748;12.106;2023-05-07T12:03:46;25.40;47.60
12632;DHT22;6381;45.748;12.106;2023-05-07T12:06:19;25.20;48.00
12632;DHT22;6381;45.748;12.106;2023-05-07T12:08:49;25.50;48.30
12632;DHT22;6381;45.748;12.106;2023-05-07T12:11:23;25.30;50.40
12632;DHT22;6381;45.748;12.106;2023-05-07T12:13:54;25.10;49.70
12632;DHT22;6381;45.748;12.106;2023-05-07T12:16:27;25.20;50.30
12632;DHT22;6381;45.748;12.106;2023-05-07T12:18:57;25.20;49.40
12632;DHT22;6381;45.748;12.106;2023-05-07T12:21:28;25.30;49.60
12632;DHT22;6381;45.748;12.106;2023-05-07T12:23:59;25.70;50.90
12632;DHT22;6381;45.748;12.106;2023-05-07T12:26:29;25.90;51.60
12632;DHT22;6381;45.748;12.106;2023-05-07T12:28:58;25.90;52.60
12632;DHT22;6381;45.748;12.106;2023-05-07T12:31:28;25.90;54.40
12632;DHT22;6381;45.748;12.106;2023-05-07T12:33:58;25.90;53.20
12632;DHT22;6381;45.748;12.106;2023-05-07T12:36:36;25.80;51.80
12632;DHT22;6381;45.748;12.106;2023-05-07T12:39:07;25.10;49.90
12632;DHT22;6381;45.748;12.106;2023-05-07T12:41:52;25.20;49.80
12632;DHT22;6381;45.748;12.106;2023-05-07T12:44:23;25.40;50.30
12632;DHT22;6381;45.748;12.106;2023-05-07T12:46:53;25.50;50.10
12632;DHT22;6381;45.748;12.106;2023-05-07T12:49:24;25.60;50.40
12632;DHT22;6381;45.748;12.106;2023-05-07T12:51:55;25.40;52.30
12632;DHT22;6381;45.748;12.106;2023-05-07T12:54:29;25.40;51.60
12632;DHT22;6381;45.748;12.106;2023-05-07T12:57:02;25.30;51.50
12632;DHT22;6381;45.748;12.106;2023-05-07T12:59:33;25.80;51.00
12632;DHT22;6381;45.748;12.106;2023-05-07T13:02:04;26.30;52.20
12632;DHT22;6381;45.748;12.106;2023-05-07T13:04:37;26.90;51.40
12632;DHT22;6381;45.748;12.106;2023-05-07T13:07:09;27.40;50.40
12632;DHT22;6381;45.748;12.106;2023-05-07T13:09:39;26.50;50.20
12632;DHT22;6381;45.748;12.106;2023-05-07T13:12:09;26.20;50.10
12632;DHT22;6381;45.748;12.106;2023-05-07T13:14:38;26.60;49.20
12632;DHT22;6381;45.748;12.106;2023-05-07T13:17:08;27.20;49.80
12632;DHT22;6381;45.748;12.106;2023-05-07T13:19:38;28.20;50.60
12632;DHT22;6381;45.748;12.106;2023-05-07T13:22:14;28.30;47.60
12632;DHT22;6381;45.748;12.106;2023-05-07T13:24:44;29.70;48.80
12632;DHT22;6381;45.748;12.106;2023-05-07T13:27:14;29.10;45.50
12632;DHT22;6381;45.748;12.106;2023-05-07T13:29:44;28.80;43.60
12632;DHT22;6381;45.748;12.106;2023-05-07T13:32:14;29.10;43.50
12632;DHT22;6381;45.748;12.106;2023-05-07T13:34:44;28.40;43.90
12632;DHT22;6381;45.748;12.106;2023-05-07T13:37:15;29.00;46.00
12632;DHT22;6381;45.748;12.106;2023-05-07T13:39:46;29.80;44.40
12632;DHT22;6381;45.748;12.106;2023-05-07T13:42:17;29.40;42.70
12632;DHT22;6381;45.748;12.106;2023-05-07T13:44:47;28.20;43.90
12632;DHT22;6381;45.748;12.106;2023-05-07T13:47:17;29.10;45.50
12632;DHT22;6381;45.748;12.106;2023-05-07T13:49:49;29.60;44.30
12632;DHT22;6381;45.748;12.106;2023-05-07T13:52:20;29.10;42.30
12632;DHT22;6381;45.748;12.106;2023-05-07T13:54:50;28.30;42.90
12632;DHT22;6381;45.748;12.106;2023-05-07T13:57:20;27.40;44.60
12632;DHT22;6381;45.748;12.106;2023-05-07T13:59:49;27.90;45.40
12632;DHT22;6381;45.748;12.106;2023-05-07T14:02:19;27.70;45.50
12632;DHT22;6381;45.748;12.106;2023-05-07T14:04:49;27.20;46.60
12632;DHT22;6381;45.748;12.106;2023-05-07T14:07:21;27.00;48.00
12632;DHT22;6381;45.748;12.106;2023-05-07T14:09:50;27.80;46.30
12632;DHT22;6381;45.748;12.106;2023-05-07T14:12:20;27.60;45.70
12632;DHT22;6381;45.748;12.106;2023-05-07T14:14:50;27.50;46.30
12632;DHT22;6381;45.748;12.106;2023-05-07T14:17:21;27.30;47.60
12632;DHT22;6381;45.748;12.106;2023-05-07T14:19:51;27.20;49.30
12632;DHT22;6381;45.748;12.106;2023-05-07T14:22:25;27.30;50.20
12632;DHT22;6381;45.748;12.106;2023-05-07T14:24:58;27.20;48.70
12632;DHT22;6381;45.748;12.106;2023-05-07T14:27:36;27.50;49.00
12632;DHT22;6381;45.748;12.106;2023-05-07T14:30:07;28.80;47.60
12632;DHT22;6381;45.748;12.106;2023-05-07T14:32:38;29.80;48.80
12632;DHT22;6381;45.748;12.106;2023-05-07T14:35:08;30.70;45.70
12632;DHT22;6381;45.748;12.106;2023-05-07T14:37:42;30.30;46.90
12632;DHT22;6381;45.748;12.106;2023-05-07T14:40:14;29.10;46.90
12632;DHT22;6381;45.748;12.106;2023-05-07T14:42:43;28.80;46.00
12632;DHT22;6381;45.748;12.106;2023-05-07T14:45:13;28.70;43.80
12632;DHT22;6381;45.748;12.106;2023-05-07T14:47:43;27.70;46.00
12632;DHT22;6381;45.748;12.106;2023-05-07T14:50:14;28.90;44.80
12632;DHT22;6381;45.748;12.106;2023-05-07T14:52:45;28.80;43.70
12632;DHT22;6381;45.748;12.106;2023-05-07T14:55:17;29.10;45.20
12632;DHT22;6381;45.748;12.106;2023-05-07T14:57:46;29.30;46.50
12632;DHT22;6381;45.748;12.106;2023-05-07T15:00:18;29.50;42.70
12632;DHT22;6381;45.748;12.106;2023-05-07T15:02:48;28.50;45.00
12632;DHT22;6381;45.748;12.106;2023-05-07T15:05:18;27.80;47.90
12632;DHT22;6381;45.748;12.106;2023-05-07T15:07:50;27.30;47.60
12632;DHT22;6381;45.748;12.106;2023-05-07T15:10:24;27.10;48.30
12632;DHT22;6381;45.748;12.106;2023-05-07T15:12:54;26.60;49.60
12632;DHT22;6381;45.748;12.106;2023-05-07T15:15:24;26.40;51.60
12632;DHT22;6381;45.748;12.106;2023-05-07T15:17:55;26.20;50.90
12632;DHT22;6381;45.748;12.106;2023-05-07T15:20:25;26.00;51.00
12632;DHT22;6381;45.748;12.106;2023-05-07T15:22:57;25.80;51.70
12632;DHT22;6381;45.748;12.106;2023-05-07T15:25:28;25.80;53.20
12632;DHT22;6381;45.748;12.106;2023-05-07T15:27:59;25.60;52.30
12632;DHT22;6381;45.748;12.106;2023-05-07T15:30:30;25.60;53.30
12632;DHT22;6381;45.748;12.106;2023-05-07T15:33:00;25.70;52.50
12632;DHT22;6381;45.748;12.106;2023-05-07T15:35:31;25.50;55.10
12632;DHT22;6381;45.748;12.106;2023-05-07T15:38:04;25.60;53.80
12632;DHT22;6381;45.748;12.106;2023-05-07T15:40:36;25.70;55.40
12632;DHT22;6381;45.748;12.106;2023-05-07T15:43:09;25.60;57.50
12632;DHT22;6381;45.748;12.106;2023-05-07T15:45:43;25.50;57.30
12632;DHT22;6381;45.748;12.106;2023-05-07T15:48:13;25.40;54.80
12632;DHT22;6381;45.748;12.106;2023-05-07T15:50:43;25.20;55.70
12632;DHT22;6381;45.748;12.106;2023-05-07T15:53:14;25.10;56.00
12632;DHT22;6381;45.748;12.106;2023-05-07T15:55:44;25.10;55.60
12632;DHT22;6381;45.748;12.106;2023-05-07T15:58:17;25.00;55.50
12632;DHT22;6381;45.748;12.106;2023-05-07T16:00:48;25.10;55.10
12632;DHT22;6381;45.748;12.106;2023-05-07T16:03:18;25.00;54.40